createdAt,value
2022-08-24T00:00:31.644Z,21.80
2022-08-24T00:03:36.825Z,21.56
2022-08-24T00:06:43.717Z,21.61
2022-08-24T00:09:49.532Z,21.72
2022-08-24T00:12:58.455Z,21.63
2022-08-24T00:16:04.270Z,21.50
2022-08-24T00:19:10.982Z,21.54
2022-08-24T00:22:16.826Z,21.53
2022-08-24T00:25:24.924Z,21.58
2022-08-24T00:28:30.211Z,21.54
2022-08-24T00:31:37.125Z,21.48
2022-08-24T00:34:56.152Z,21.46
2022-08-24T00:37:51.268Z,21.46
2022-08-24T00:41:01.870Z,21.46
2022-08-24T00:44:14.161Z,21.26
2022-08-24T00:47:29.281Z,21.16
2022-08-24T00:50:42.615Z,21.15
2022-08-24T00:53:54.122Z,21.21
2022-08-24T00:57:03.758Z,21.18
2022-08-24T01:00:14.034Z,21.16
2022-08-24T01:03:20.876Z,21.21
2022-08-24T01:06:26.602Z,20.99
2022-08-24T01:09:31.419Z,20.85
2022-08-24T01:12:32.792Z,20.93
2022-08-24T01:15:27.232Z,20.88
2022-08-24T01:18:53.257Z,20.91
2022-08-24T01:22:18.993Z,21.00
2022-08-24T01:25:25.831Z,20.99
2022-08-24T01:28:33.147Z,20.94
2022-08-24T01:31:38.933Z,21.00
2022-08-24T01:34:44.724Z,21.05
2022-08-24T01:37:49.959Z,21.11
2022-08-24T01:41:03.075Z,21.18
2022-08-24T01:44:09.421Z,21.27
2022-08-24T01:47:16.186Z,21.40
2022-08-24T01:50:22.076Z,21.50
2022-08-24T01:53:29.221Z,21.52
2022-08-24T01:56:38.153Z,21.57
2022-08-24T01:59:43.013Z,21.47
2022-08-24T02:02:42.606Z,21.44
2022-08-24T02:05:35.997Z,21.57
2022-08-24T02:08:43.807Z,21.63
2022-08-24T02:11:50.708Z,21.46
2022-08-24T02:14:59.243Z,21.62
2022-08-24T02:18:04.560Z,21.57
2022-08-24T02:21:11.359Z,21.70
2022-08-24T02:24:18.760Z,21.74
2022-08-24T02:27:23.822Z,21.70
2022-08-24T02:30:29.620Z,21.73
2022-08-24T02:33:35.386Z,21.77
2022-08-24T02:36:42.248Z,21.73
2022-08-24T02:39:48.071Z,21.67
2022-08-24T02:42:54.737Z,21.68
2022-08-24T02:46:01.455Z,21.68
2022-08-24T02:49:11.297Z,21.68
2022-08-24T02:52:15.491Z,21.58
2022-08-24T02:55:21.413Z,21.56
2022-08-24T02:58:27.965Z,21.57
2022-08-24T03:01:33.688Z,21.55
2022-08-24T03:04:38.735Z,21.60
2022-08-24T03:07:45.620Z,21.61
2022-08-24T03:10:52.407Z,21.60
2022-08-24T03:13:58.925Z,21.54
2022-08-24T03:17:05.313Z,21.55
2022-08-24T03:20:10.631Z,21.32
2022-08-24T03:23:17.217Z,21.18
2022-08-24T03:26:22.961Z,21.19
2022-08-24T03:29:24.203Z,21.13
2022-08-24T03:32:09.986Z,21.10
2022-08-24T03:35:02.238Z,21.12
2022-08-24T03:37:48.022Z,21.04
2022-08-24T03:40:40.566Z,21.07
2022-08-24T03:43:59.657Z,21.10
2022-08-24T03:47:05.111Z,21.18
2022-08-24T03:50:10.091Z,21.32
2022-08-24T03:53:15.144Z,21.38
2022-08-24T03:56:20.924Z,21.50
2022-08-24T03:59:27.456Z,21.55
2022-08-24T04:02:33.742Z,21.69
2022-08-24T04:05:39.159Z,21.60
2022-08-24T04:08:46.891Z,21.68
2022-08-24T04:11:53.670Z,21.91
2022-08-24T04:15:02.281Z,21.89
2022-08-24T04:18:08.819Z,21.97
2022-08-24T04:21:14.933Z,22.16
2022-08-24T04:24:21.330Z,22.38
2022-08-24T04:27:27.390Z,22.53
2022-08-24T04:30:33.101Z,22.70
2022-08-24T04:33:41.580Z,22.91
2022-08-24T04:36:47.081Z,23.09
2022-08-24T04:39:53.119Z,23.27
2022-08-24T04:43:01.431Z,23.24
2022-08-24T04:46:10.030Z,23.38
2022-08-24T04:49:15.728Z,23.46
2022-08-24T04:52:22.183Z,23.61
2022-08-24T04:55:27.872Z,23.82
2022-08-24T04:58:34.319Z,24.04
2022-08-24T05:01:42.086Z,24.22
2022-08-24T05:04:47.633Z,24.15
2022-08-24T05:07:56.565Z,24.32
2022-08-24T05:11:02.878Z,24.42
2022-08-24T05:14:11.191Z,24.52
2022-08-24T05:17:19.278Z,24.55
2022-08-24T05:20:28.395Z,24.70
2022-08-24T05:23:37.093Z,24.88
2022-08-24T05:26:45.239Z,24.98
2022-08-24T05:29:53.971Z,25.14
2022-08-24T05:32:59.495Z,25.24
2022-08-24T05:36:06.126Z,24.97
2022-08-24T05:39:12.865Z,25.51
2022-08-24T05:42:20.442Z,25.58
2022-08-24T05:45:25.268Z,25.64
2022-08-24T05:48:30.793Z,25.81
2022-08-24T05:51:39.021Z,25.90
2022-08-24T05:54:44.052Z,25.93
2022-08-24T05:57:51.924Z,25.97
2022-08-24T06:00:58.553Z,25.99
2022-08-24T06:04:05.992Z,26.10
2022-08-24T06:07:11.774Z,26.18
2022-08-24T06:10:35.994Z,26.21
2022-08-24T06:13:26.701Z,26.38
2022-08-24T06:16:34.064Z,26.43
2022-08-24T06:19:39.692Z,26.45
2022-08-24T06:22:45.126Z,26.58
2022-08-24T06:26:15.262Z,26.72
2022-08-24T06:29:18.382Z,26.60
2022-08-24T06:32:25.882Z,26.71
2022-08-24T06:35:31.241Z,26.85
2022-08-24T06:38:37.929Z,26.98
2022-08-24T06:41:45.412Z,27.13
2022-08-24T06:44:54.829Z,27.17
2022-08-24T06:48:02.618Z,27.14
2022-08-24T06:51:09.265Z,27.15
2022-08-24T06:54:15.224Z,27.24
2022-08-24T06:57:20.783Z,27.33
2022-08-24T07:00:27.555Z,27.48
2022-08-24T07:03:33.300Z,27.58
2022-08-24T07:06:41.392Z,27.77
2022-08-24T07:09:46.888Z,27.81
2022-08-24T07:12:53.969Z,27.65
2022-08-24T07:16:06.001Z,27.64
2022-08-24T07:19:16.506Z,27.72
2022-08-24T07:22:23.254Z,27.88
2022-08-24T07:25:28.853Z,27.98
2022-08-24T07:28:35.804Z,28.11
2022-08-24T07:31:42.318Z,28.13
2022-08-24T07:34:58.547Z,28.21
2022-08-24T07:38:11.702Z,28.32
2022-08-24T07:44:38.641Z,28.26
2022-08-24T07:47:56.277Z,28.27
2022-08-24T07:51:17.698Z,28.32
2022-08-24T07:54:25.470Z,28.37
2022-08-24T07:57:31.701Z,28.43
2022-08-24T08:00:37.394Z,28.49
2022-08-24T08:03:44.627Z,28.66
2022-08-24T08:06:53.841Z,28.84
2022-08-24T08:10:00.773Z,28.46
2022-08-24T08:13:09.228Z,28.53
2022-08-24T08:16:15.768Z,28.65
2022-08-24T08:19:21.121Z,28.78
2022-08-24T08:22:39.006Z,28.85
2022-08-24T08:25:47.471Z,28.87
2022-08-24T08:28:57.095Z,28.97
2022-08-24T08:32:03.448Z,28.99
2022-08-24T08:35:10.089Z,29.06
2022-08-24T08:38:16.518Z,28.98
2022-08-24T08:41:45.695Z,29.03
2022-08-24T08:45:21.514Z,29.20
2022-08-24T08:48:43.834Z,29.26
2022-08-24T08:52:32.289Z,29.23
2022-08-24T08:56:13.298Z,29.17
2022-08-24T08:59:29.569Z,29.32
2022-08-24T09:02:55.719Z,29.41
2022-08-24T09:06:31.338Z,29.43
2022-08-24T09:09:57.369Z,29.43
2022-08-24T09:13:30.999Z,29.53
2022-08-24T09:17:21.637Z,29.43
2022-08-24T09:20:43.675Z,29.46
2022-08-24T09:24:18.026Z,29.52
2022-08-24T09:27:42.154Z,29.59
2022-08-24T09:30:52.591Z,29.67
2022-08-24T09:34:05.000Z,29.47
2022-08-24T09:37:20.360Z,29.52
2022-08-24T09:40:18.713Z,29.60
2022-08-24T09:44:10.385Z,29.66
2022-08-24T09:47:20.104Z,29.68
2022-08-24T09:51:03.738Z,29.73
2022-08-24T09:54:37.632Z,29.82
2022-08-24T09:58:11.286Z,29.89
2022-08-24T10:01:57.724Z,29.89
2022-08-24T10:05:17.433Z,29.92
2022-08-24T10:09:23.995Z,29.96
2022-08-24T10:13:14.351Z,29.94
2022-08-24T10:16:43.968Z,29.86
2022-08-24T10:20:31.389Z,29.88
2022-08-24T10:24:29.605Z,29.94
2022-08-24T10:27:42.215Z,30.03
2022-08-24T10:31:01.491Z,30.07
2022-08-24T10:34:24.706Z,30.14
2022-08-24T10:37:43.550Z,30.21
2022-08-24T10:41:01.317Z,30.27
2022-08-24T10:44:52.270Z,30.41
2022-08-24T10:48:03.095Z,30.48
2022-08-24T10:51:35.421Z,30.42
2022-08-24T10:54:41.031Z,30.44
2022-08-24T10:57:56.799Z,30.52
2022-08-24T11:00:58.215Z,30.59
2022-08-24T11:04:13.937Z,30.59
2022-08-24T11:07:35.642Z,30.65
2022-08-24T11:10:43.410Z,30.75
2022-08-24T11:13:49.207Z,30.77
2022-08-24T11:16:58.077Z,30.76
2022-08-24T11:20:06.426Z,30.83
2022-08-24T11:23:18.970Z,30.92
2022-08-24T11:26:34.759Z,30.89
2022-08-24T11:30:04.703Z,30.90
2022-08-24T11:33:18.937Z,30.93
2022-08-24T11:36:31.561Z,30.96
2022-08-24T11:39:43.735Z,30.96
2022-08-24T11:43:19.205Z,30.92
2022-08-24T11:46:45.062Z,30.89
2022-08-24T11:50:00.730Z,30.87
2022-08-24T11:53:30.880Z,30.91
2022-08-24T11:57:05.250Z,30.94
2022-08-24T12:00:26.324Z,30.98
2022-08-24T12:04:07.370Z,31.02
2022-08-24T12:07:22.350Z,31.08
2022-08-24T12:10:55.408Z,31.10
2022-08-24T12:14:38.778Z,31.10
2022-08-24T12:18:26.143Z,31.07
2022-08-24T12:21:36.290Z,31.07
2022-08-24T12:25:15.436Z,31.10
2022-08-24T12:28:23.555Z,31.09
2022-08-24T12:31:51.704Z,31.03
2022-08-24T12:35:35.648Z,30.71
2022-08-24T12:38:46.810Z,31.03
2022-08-24T12:42:21.771Z,31.01
2022-08-24T12:45:30.355Z,30.86
2022-08-24T12:49:01.956Z,30.97
2022-08-24T12:52:28.335Z,30.85
2022-08-24T12:56:02.447Z,30.85
2022-08-24T12:59:39.366Z,30.85
2022-08-24T13:02:56.612Z,31.10
2022-08-24T13:06:06.660Z,31.11
2022-08-24T13:09:31.412Z,31.12
2022-08-24T13:13:01.404Z,30.97
2022-08-24T13:16:11.175Z,30.72
2022-08-24T13:19:33.618Z,31.01
2022-08-24T13:23:08.199Z,30.79
2022-08-24T13:26:40.063Z,30.78
2022-08-24T13:29:49.643Z,30.69
2022-08-24T13:33:00.550Z,30.68
2022-08-24T13:36:16.596Z,30.88
2022-08-24T13:40:09.858Z,30.78
2022-08-24T13:43:39.644Z,30.78
2022-08-24T13:47:25.548Z,30.74
2022-08-24T13:51:07.543Z,30.74
2022-08-24T13:54:38.186Z,30.66
2022-08-24T13:57:59.339Z,30.66
2022-08-24T14:01:33.053Z,30.61
2022-08-24T14:04:56.375Z,30.58
2022-08-24T14:08:30.310Z,30.72
2022-08-24T14:12:02.151Z,30.65
2022-08-24T14:15:46.931Z,30.41
2022-08-24T14:19:17.129Z,30.41
2022-08-24T14:22:29.342Z,30.40
2022-08-24T14:25:44.472Z,30.31
2022-08-24T14:28:58.122Z,30.27
2022-08-24T14:32:12.933Z,30.27
2022-08-24T14:35:37.770Z,30.27
2022-08-24T14:39:00.450Z,30.28
2022-08-24T14:42:34.874Z,30.21
2022-08-24T14:46:20.357Z,30.17
2022-08-24T14:49:51.882Z,30.00
2022-08-24T14:53:04.459Z,30.00
2022-08-24T14:56:25.022Z,29.99
2022-08-24T14:59:54.610Z,29.98
2022-08-24T15:03:40.910Z,30.27
2022-08-24T15:07:09.081Z,30.02
2022-08-24T15:10:17.179Z,29.92
2022-08-24T15:13:29.265Z,29.87
2022-08-24T15:16:55.551Z,29.84
2022-08-24T15:20:26.688Z,29.77
2022-08-24T15:24:10.008Z,29.70
2022-08-24T15:27:50.721Z,29.65
2022-08-24T15:31:05.733Z,29.55
2022-08-24T15:34:15.193Z,29.49
2022-08-24T15:37:22.778Z,29.34
2022-08-24T15:40:39.959Z,29.25
2022-08-24T15:43:48.887Z,29.21
2022-08-24T15:47:01.802Z,29.06
2022-08-24T15:50:16.040Z,29.02
2022-08-24T15:53:23.108Z,28.98
2022-08-24T15:56:47.407Z,28.91
2022-08-24T15:59:58.470Z,28.88
2022-08-24T16:03:08.546Z,28.72
2022-08-24T16:06:16.429Z,28.52
2022-08-24T16:09:37.248Z,28.40
2022-08-24T16:12:42.083Z,28.31
2022-08-24T16:15:47.865Z,28.23
2022-08-24T16:19:12.695Z,28.10
2022-08-24T16:22:23.214Z,28.00
2022-08-24T16:25:34.893Z,27.92
2022-08-24T16:28:47.770Z,27.78
2022-08-24T16:32:05.126Z,27.65
2022-08-24T16:35:27.750Z,27.57
2022-08-24T16:38:35.919Z,27.39
2022-08-24T16:41:45.517Z,27.50
2022-08-24T16:44:57.163Z,27.15
2022-08-24T16:48:05.155Z,27.00
2022-08-24T16:51:12.887Z,26.89
2022-08-24T16:54:19.061Z,26.72
2022-08-24T16:57:30.028Z,26.90
2022-08-24T17:00:39.458Z,26.40
2022-08-24T17:03:45.160Z,26.19
2022-08-24T17:06:50.898Z,26.03
2022-08-24T17:09:58.772Z,25.85
2022-08-24T17:13:04.957Z,25.70
2022-08-24T17:16:10.961Z,25.74
2022-08-24T17:19:19.297Z,25.40
2022-08-24T17:22:27.677Z,25.30
2022-08-24T17:25:38.230Z,25.53
2022-08-24T17:28:45.843Z,25.10
2022-08-24T17:31:52.785Z,24.97
2022-08-24T17:34:59.074Z,24.89
2022-08-24T17:38:05.247Z,24.81
2022-08-24T17:41:11.327Z,24.77
2022-08-24T17:44:20.445Z,24.71
2022-08-24T17:47:25.200Z,24.74
2022-08-24T17:50:31.169Z,24.56
2022-08-24T17:53:36.688Z,24.53
2022-08-24T17:56:45.901Z,24.52
2022-08-24T17:59:51.751Z,24.46
2022-08-24T18:02:57.362Z,24.52
2022-08-24T18:06:03.565Z,24.51
2022-08-24T18:09:11.454Z,24.48
2022-08-24T18:12:17.662Z,24.42
2022-08-24T18:15:34.614Z,24.40
2022-08-24T18:18:30.685Z,24.43
2022-08-24T18:21:35.783Z,24.43
2022-08-24T18:24:41.135Z,24.42
2022-08-24T18:27:46.899Z,24.50
2022-08-24T18:30:52.860Z,24.26
2022-08-24T18:33:58.222Z,24.18
2022-08-24T18:37:04.152Z,24.14
2022-08-24T18:40:08.832Z,24.15
2022-08-24T18:43:16.310Z,24.24
2022-08-24T18:46:22.443Z,24.19
2022-08-24T18:49:27.953Z,24.01
2022-08-24T18:52:34.620Z,24.02
2022-08-24T18:55:40.175Z,23.88
2022-08-24T18:58:46.192Z,24.00
2022-08-24T19:02:09.467Z,23.96
2022-08-24T19:05:24.898Z,23.87
2022-08-24T19:08:31.691Z,23.88
2022-08-24T19:11:38.571Z,23.74
2022-08-24T19:14:46.496Z,23.68
2022-08-24T19:17:51.379Z,23.71
2022-08-24T19:20:52.585Z,23.51
2022-08-24T19:23:59.446Z,23.71
2022-08-24T19:27:04.870Z,23.48
2022-08-24T19:30:11.741Z,23.38
2022-08-24T19:33:18.010Z,23.30
2022-08-24T19:36:23.962Z,23.25
2022-08-24T19:39:31.679Z,23.24
2022-08-24T19:42:35.543Z,23.33
2022-08-24T19:46:00.309Z,23.20
2022-08-24T19:49:06.025Z,23.20
2022-08-24T19:52:13.356Z,23.42
2022-08-24T19:55:24.089Z,23.11
2022-08-24T19:58:45.385Z,23.50
2022-08-24T20:01:52.112Z,23.53
2022-08-24T20:04:56.980Z,23.53
2022-08-24T20:08:03.336Z,23.49
2022-08-24T20:11:09.243Z,23.51
2022-08-24T20:14:15.355Z,23.41
2022-08-24T20:17:20.964Z,23.34
2022-08-24T20:20:27.914Z,23.42
2022-08-24T20:23:33.237Z,23.50
2022-08-24T20:26:38.648Z,23.46
2022-08-24T20:29:44.067Z,23.70
2022-08-24T20:32:49.263Z,23.79
2022-08-24T20:35:54.832Z,23.88
2022-08-24T20:39:01.784Z,23.39
2022-08-24T20:42:10.894Z,23.12
2022-08-24T20:45:15.175Z,23.05
2022-08-24T20:48:21.622Z,23.17
2022-08-24T20:51:27.328Z,23.10
2022-08-24T20:54:37.685Z,23.60
2022-08-24T20:57:40.122Z,23.60
2022-08-24T21:00:47.923Z,23.55
2022-08-24T21:03:54.762Z,23.50
2022-08-24T21:07:01.249Z,23.56
2022-08-24T21:10:07.929Z,23.50
2022-08-24T21:13:14.373Z,23.08
2022-08-24T21:16:22.267Z,23.17
2022-08-24T21:19:28.433Z,23.23
2022-08-24T21:22:34.150Z,23.12
2022-08-24T21:25:39.829Z,22.97
2022-08-24T21:28:45.457Z,23.21
2022-08-24T21:31:53.848Z,22.70
2022-08-24T21:34:59.514Z,22.67
2022-08-24T21:38:05.907Z,22.62
2022-08-24T21:41:13.853Z,22.69
2022-08-24T21:44:19.365Z,22.44
2022-08-24T21:47:24.753Z,22.48
2022-08-24T21:50:30.459Z,22.70
2022-08-24T21:53:35.693Z,22.76
2022-08-24T21:56:42.970Z,22.72
2022-08-24T21:59:48.911Z,22.74
2022-08-24T22:02:49.309Z,22.74
2022-08-24T22:05:56.296Z,22.73
2022-08-24T22:09:02.012Z,22.76
2022-08-24T22:12:07.673Z,22.76
2022-08-24T22:15:13.764Z,22.69
2022-08-24T22:18:19.986Z,22.27
2022-08-24T22:21:29.485Z,22.20
2022-08-24T22:24:34.581Z,22.42
2022-08-24T22:27:40.084Z,21.91
2022-08-24T22:30:48.128Z,22.33
2022-08-24T22:33:54.434Z,22.33
2022-08-24T22:37:02.248Z,22.28
2022-08-24T22:40:12.378Z,21.86
2022-08-24T22:43:15.245Z,21.86
2022-08-24T22:46:21.015Z,21.83
2022-08-24T22:49:26.594Z,21.81
2022-08-24T22:52:33.243Z,21.82
2022-08-24T22:55:39.529Z,21.74
2022-08-24T22:58:45.416Z,21.86
2022-08-24T23:01:54.422Z,21.83
2022-08-24T23:05:02.224Z,21.89
2022-08-24T23:08:08.068Z,21.87
2022-08-24T23:11:14.733Z,21.86
2022-08-24T23:14:21.322Z,22.00
2022-08-24T23:17:27.675Z,22.24
2022-08-24T23:20:33.670Z,22.39
2022-08-24T23:23:40.029Z,22.38
2022-08-24T23:26:45.930Z,22.06
2022-08-24T23:29:46.156Z,22.01
2022-08-24T23:32:51.398Z,22.06
2022-08-24T23:35:56.640Z,21.95
2022-08-24T23:39:05.509Z,22.08
2022-08-24T23:42:10.549Z,21.99
2022-08-24T23:45:16.058Z,21.98
2022-08-24T23:48:22.127Z,21.92
2022-08-24T23:51:30.281Z,21.99
2022-08-24T23:54:36.127Z,21.90
2022-08-24T23:57:41.487Z,21.83
